Airfield :
LOGIN :

Register | Disclaimer

   EN    FR    IT 

 










Legend :    VFR   Marginal VFR   IFR   Intensive IFR   Very Intensive IFR
Visi :
Ceiling :
>= 8 km
>= 3000ft
5 to 8 km
1000 to 3000 ft
1500m to 5 km
500 to 1000 ft
800 to 1500m
200 to 500 ft
< 800m
< 200 ft
Symbols :   Thunderstorms  Fog  Heavy snow  Heavy precipitations  Wind > 20 kt
SIGMETs :     Misc.  Thunderstorms  Icing  Turbulence  Mountain Waves  Volcanic Ashes






- Airport Elevation : 256 ft
- IATA code : CFR


LFRK - Caen

CURRENT METAR :
  • 172130Z AUTO 00000KT 6000 FEW015 03/03 Q1039

EXPIRED METARs :
  • 172100Z AUTO VRB02KT 9000 OVC015 03/02 Q1039 BECMG 3000 BR
  • 172030Z AUTO 14001KT 9999 BKN016 04/03 Q1039 BECMG 3000 BR
  • 172000Z AUTO 00000KT 8000 BKN017 02/01 Q1039 NOSIG
  • 171930Z AUTO 00000KT CAVOK 03/02 Q1038 NOSIG
  • 171900Z AUTO 35001KT 9000 NSC 03/02 Q1038 NOSIG

TAF TAF LFRK
Valid from the 17 at 15:00 until the 18 at 00:00 UTC


171400Z 1715/1724 VRB03KT 9999 SCT020
BECMG 1722/1724 3000 BR
PROB40
TEMPO 1723/1724 0500 FG
Met : +33 2 31 26 68 11



MET'MAP, your aeronautical weather chart ! - Copyright ORBIFLY December 2007 - Disclaimer

ORBIFLY MET'MAP TEAM :

Programming & Development : Alexandra Zaïnal
Concept & original design : Baudouin d'Aumeries
Assistance for programming : Marc-Olivier Méhu
Technical & hardware support : Manuel Goepfert

Contact : metmap@orbifly.com




SOURCES & CREDITS :

   NOAA